sensor_id;sensor_type;location;lat;lon;timestamp;P1;durP1;ratioP1;P2;durP2;ratioP2
40983;SDS011;26714;51.332;12.406;2023-07-16T00:00:46;8.85;;;4.70;;
40983;SDS011;26714;51.332;12.406;2023-07-16T00:03:12;11.98;;;4.25;;
40983;SDS011;26714;51.332;12.406;2023-07-16T00:05:39;6.82;;;4.20;;
40983;SDS011;26714;51.332;12.406;2023-07-16T00:08:04;8.63;;;3.80;;
40983;SDS011;26714;51.332;12.406;2023-07-16T00:10:33;7.05;;;3.50;;
40983;SDS011;26714;51.332;12.406;2023-07-16T00:12:58;9.70;;;3.53;;
40983;SDS011;26714;51.332;12.406;2023-07-16T00:15:25;14.25;;;4.45;;
40983;SDS011;26714;51.332;12.406;2023-07-16T00:17:50;9.30;;;3.38;;
40983;SDS011;26714;51.332;12.406;2023-07-16T00:20:16;6.60;;;3.30;;
40983;SDS011;26714;51.332;12.406;2023-07-16T00:22:41;6.82;;;3.15;;
40983;SDS011;26714;51.332;12.406;2023-07-16T00:25:07;6.60;;;3.22;;
40983;SDS011;26714;51.332;12.406;2023-07-16T00:27:32;5.10;;;2.88;;
40983;SDS011;26714;51.332;12.406;2023-07-16T00:29:58;4.57;;;3.10;;
40983;SDS011;26714;51.332;12.406;2023-07-16T00:32:24;6.32;;;3.15;;
40983;SDS011;26714;51.332;12.406;2023-07-16T00:34:50;7.72;;;3.67;;
40983;SDS011;26714;51.332;12.406;2023-07-16T00:37:15;6.35;;;3.80;;
40983;SDS011;26714;51.332;12.406;2023-07-16T00:39:41;6.93;;;3.83;;
40983;SDS011;26714;51.332;12.406;2023-07-16T00:42:06;12.45;;;3.92;;
40983;SDS011;26714;51.332;12.406;2023-07-16T00:44:32;6.22;;;3.55;;
40983;SDS011;26714;51.332;12.406;2023-07-16T00:46:57;8.45;;;4.07;;
40983;SDS011;26714;51.332;12.406;2023-07-16T00:49:23;8.77;;;4.55;;
40983;SDS011;26714;51.332;12.406;2023-07-16T00:51:49;6.85;;;4.22;;
40983;SDS011;26714;51.332;12.406;2023-07-16T00:54:15;9.27;;;3.88;;
40983;SDS011;26714;51.332;12.406;2023-07-16T00:56:41;10.93;;;4.03;;
40983;SDS011;26714;51.332;12.406;2023-07-16T00:59:06;9.00;;;3.75;;
40983;SDS011;26714;51.332;12.406;2023-07-16T01:01:32;9.75;;;3.80;;
40983;SDS011;26714;51.332;12.406;2023-07-16T01:03:57;7.35;;;3.92;;
40983;SDS011;26714;51.332;12.406;2023-07-16T01:11:17;8.93;;;3.58;;
40983;SDS011;26714;51.332;12.406;2023-07-16T01:13:43;7.30;;;3.75;;
40983;SDS011;26714;51.332;12.406;2023-07-16T01:16:19;9.38;;;3.33;;
40983;SDS011;26714;51.332;12.406;2023-07-16T01:18:45;10.82;;;3.55;;
40983;SDS011;26714;51.332;12.406;2023-07-16T01:21:11;9.07;;;3.60;;
40983;SDS011;26714;51.332;12.406;2023-07-16T01:29:18;7.88;;;4.00;;
40983;SDS011;26714;51.332;12.406;2023-07-16T01:31:46;5.82;;;3.15;;
40983;SDS011;26714;51.332;12.406;2023-07-16T01:34:13;7.10;;;3.72;;
40983;SDS011;26714;51.332;12.406;2023-07-16T01:36:39;11.25;;;3.58;;
40983;SDS011;26714;51.332;12.406;2023-07-16T01:39:05;10.65;;;4.43;;
40983;SDS011;26714;51.332;12.406;2023-07-16T01:41:31;8.55;;;3.58;;
40983;SDS011;26714;51.332;12.406;2023-07-16T01:43:56;10.32;;;3.78;;
40983;SDS011;26714;51.332;12.406;2023-07-16T01:46:23;6.40;;;3.50;;
40983;SDS011;26714;51.332;12.406;2023-07-16T01:48:48;9.43;;;3.33;;
40983;SDS011;26714;51.332;12.406;2023-07-16T01:51:14;11.15;;;3.60;;
40983;SDS011;26714;51.332;12.406;2023-07-16T01:53:40;13.07;;;3.67;;
40983;SDS011;26714;51.332;12.406;2023-07-16T01:56:05;7.15;;;3.42;;
40983;SDS011;26714;51.332;12.406;2023-07-16T01:58:31;7.88;;;3.30;;
40983;SDS011;26714;51.332;12.406;2023-07-16T02:00:57;5.95;;;3.25;;
40983;SDS011;26714;51.332;12.406;2023-07-16T02:03:23;7.13;;;3.28;;
40983;SDS011;26714;51.332;12.406;2023-07-16T02:05:48;6.90;;;3.17;;
40983;SDS011;26714;51.332;12.406;2023-07-16T02:08:14;5.97;;;2.83;;
40983;SDS011;26714;51.332;12.406;2023-07-16T02:10:39;7.10;;;3.08;;
40983;SDS011;26714;51.332;12.406;2023-07-16T02:13:05;9.30;;;3.10;;
40983;SDS011;26714;51.332;12.406;2023-07-16T02:15:30;8.57;;;3.90;;
40983;SDS011;26714;51.332;12.406;2023-07-16T02:17:56;9.05;;;4.32;;
40983;SDS011;26714;51.332;12.406;2023-07-16T02:20:22;6.53;;;3.83;;
40983;SDS011;26714;51.332;12.406;2023-07-16T02:22:47;9.77;;;4.88;;
40983;SDS011;26714;51.332;12.406;2023-07-16T02:25:13;8.48;;;5.00;;
40983;SDS011;26714;51.332;12.406;2023-07-16T02:27:38;6.70;;;3.75;;
40983;SDS011;26714;51.332;12.406;2023-07-16T02:30:04;5.72;;;3.95;;
40983;SDS011;26714;51.332;12.406;2023-07-16T02:32:31;5.70;;;3.80;;
40983;SDS011;26714;51.332;12.406;2023-07-16T02:34:56;6.55;;;4.07;;
40983;SDS011;26714;51.332;12.406;2023-07-16T02:37:22;6.63;;;3.78;;
40983;SDS011;26714;51.332;12.406;2023-07-16T02:39:49;9.13;;;3.70;;
40983;SDS011;26714;51.332;12.406;2023-07-16T02:42:14;7.57;;;4.00;;
40983;SDS011;26714;51.332;12.406;2023-07-16T02:44:40;5.18;;;3.13;;
40983;SDS011;26714;51.332;12.406;2023-07-16T02:47:10;6.60;;;3.50;;
40983;SDS011;26714;51.332;12.406;2023-07-16T02:49:35;10.20;;;3.60;;
40983;SDS011;26714;51.332;12.406;2023-07-16T02:52:01;9.52;;;3.72;;
40983;SDS011;26714;51.332;12.406;2023-07-16T02:54:26;6.90;;;3.47;;
40983;SDS011;26714;51.332;12.406;2023-07-16T02:56:52;7.40;;;3.25;;
40983;SDS011;26714;51.332;12.406;2023-07-16T02:59:17;4.57;;;3.10;;
40983;SDS011;26714;51.332;12.406;2023-07-16T03:01:43;6.85;;;3.40;;
40983;SDS011;26714;51.332;12.406;2023-07-16T03:04:08;8.70;;;3.25;;
40983;SDS011;26714;51.332;12.406;2023-07-16T03:06:34;7.28;;;3.22;;
40983;SDS011;26714;51.332;12.406;2023-07-16T03:08:59;7.70;;;3.03;;
40983;SDS011;26714;51.332;12.406;2023-07-16T03:11:25;7.32;;;3.30;;
40983;SDS011;26714;51.332;12.406;2023-07-16T03:13:51;6.93;;;3.10;;
40983;SDS011;26714;51.332;12.406;2023-07-16T03:16:16;6.93;;;2.95;;
40983;SDS011;26714;51.332;12.406;2023-07-16T03:18:42;5.20;;;2.95;;
40983;SDS011;26714;51.332;12.406;2023-07-16T03:21:07;6.10;;;2.88;;
40983;SDS011;26714;51.332;12.406;2023-07-16T03:23:33;5.82;;;3.30;;
40983;SDS011;26714;51.332;12.406;2023-07-16T03:25:58;5.57;;;2.78;;
40983;SDS011;26714;51.332;12.406;2023-07-16T03:28:24;7.10;;;2.95;;
40983;SDS011;26714;51.332;12.406;2023-07-16T03:30:50;7.45;;;2.83;;
40983;SDS011;26714;51.332;12.406;2023-07-16T03:33:16;7.70;;;2.60;;
40983;SDS011;26714;51.332;12.406;2023-07-16T03:35:42;7.40;;;2.88;;
40983;SDS011;26714;51.332;12.406;2023-07-16T03:38:09;6.40;;;2.55;;
40983;SDS011;26714;51.332;12.406;2023-07-16T03:40:35;7.68;;;3.00;;
40983;SDS011;26714;51.332;12.406;2023-07-16T03:43:00;4.38;;;2.60;;
40983;SDS011;26714;51.332;12.406;2023-07-16T03:45:26;5.25;;;2.33;;
40983;SDS011;26714;51.332;12.406;2023-07-16T03:47:52;5.32;;;2.50;;
40983;SDS011;26714;51.332;12.406;2023-07-16T03:50:18;7.95;;;2.92;;
40983;SDS011;26714;51.332;12.406;2023-07-16T03:52:43;5.05;;;2.70;;
40983;SDS011;26714;51.332;12.406;2023-07-16T03:55:09;6.13;;;2.67;;
40983;SDS011;26714;51.332;12.406;2023-07-16T03:57:35;6.80;;;2.70;;
40983;SDS011;26714;51.332;12.406;2023-07-16T04:00:01;6.68;;;2.70;;
40983;SDS011;26714;51.332;12.406;2023-07-16T04:02:28;5.80;;;2.47;;
40983;SDS011;26714;51.332;12.406;2023-07-16T04:04:55;5.22;;;2.35;;
40983;SDS011;26714;51.332;12.406;2023-07-16T04:07:20;5.78;;;2.42;;
40983;SDS011;26714;51.332;12.406;2023-07-16T04:09:45;4.53;;;2.40;;
40983;SDS011;26714;51.332;12.406;2023-07-16T04:12:11;4.28;;;2.58;;
40983;SDS011;26714;51.332;12.406;2023-07-16T04:14:36;5.65;;;2.70;;
40983;SDS011;26714;51.332;12.406;2023-07-16T04:17:02;6.93;;;2.70;;
40983;SDS011;26714;51.332;12.406;2023-07-16T04:19:28;4.72;;;2.50;;
40983;SDS011;26714;51.332;12.406;2023-07-16T04:21:53;4.80;;;2.65;;
40983;SDS011;26714;51.332;12.406;2023-07-16T04:24:19;5.80;;;2.63;;
40983;SDS011;26714;51.332;12.406;2023-07-16T04:26:44;5.00;;;2.70;;
40983;SDS011;26714;51.332;12.406;2023-07-16T04:29:10;4.25;;;2.42;;
40983;SDS011;26714;51.332;12.406;2023-07-16T04:31:35;5.53;;;2.50;;
40983;SDS011;26714;51.332;12.406;2023-07-16T04:34:01;5.28;;;2.60;;
40983;SDS011;26714;51.332;12.406;2023-07-16T04:36:26;5.57;;;2.85;;
40983;SDS011;26714;51.332;12.406;2023-07-16T04:38:52;4.07;;;2.42;;
40983;SDS011;26714;51.332;12.406;2023-07-16T04:41:17;5.10;;;2.40;;
40983;SDS011;26714;51.332;12.406;2023-07-16T04:43:43;6.15;;;2.78;;
40983;SDS011;26714;51.332;12.406;2023-07-16T04:46:08;6.70;;;2.38;;
40983;SDS011;26714;51.332;12.406;2023-07-16T04:48:34;4.88;;;2.50;;
40983;SDS011;26714;51.332;12.406;2023-07-16T04:50:59;4.65;;;2.25;;
40983;SDS011;26714;51.332;12.406;2023-07-16T04:53:25;3.22;;;1.95;;
40983;SDS011;26714;51.332;12.406;2023-07-16T04:55:50;4.20;;;2.25;;
40983;SDS011;26714;51.332;12.406;2023-07-16T04:58:16;5.70;;;2.53;;
40983;SDS011;26714;51.332;12.406;2023-07-16T05:00:41;8.15;;;2.35;;
40983;SDS011;26714;51.332;12.406;2023-07-16T05:03:07;8.57;;;2.50;;
40983;SDS011;26714;51.332;12.406;2023-07-16T05:05:33;4.65;;;2.00;;
40983;SDS011;26714;51.332;12.406;2023-07-16T05:07:58;5.10;;;1.98;;
40983;SDS011;26714;51.332;12.406;2023-07-16T05:10:24;6.00;;;2.00;;
40983;SDS011;26714;51.332;12.406;2023-07-16T05:12:49;8.75;;;2.35;;
40983;SDS011;26714;51.332;12.406;2023-07-16T05:15:15;4.25;;;1.83;;
40983;SDS011;26714;51.332;12.406;2023-07-16T05:17:41;4.78;;;1.98;;
40983;SDS011;26714;51.332;12.406;2023-07-16T05:20:07;4.63;;;2.30;;
40983;SDS011;26714;51.332;12.406;2023-07-16T05:22:33;6.28;;;2.70;;
40983;SDS011;26714;51.332;12.406;2023-07-16T05:24:58;3.63;;;1.80;;
40983;SDS011;26714;51.332;12.406;2023-07-16T05:27:24;6.30;;;1.80;;
40983;SDS011;26714;51.332;12.406;2023-07-16T05:29:49;2.90;;;1.70;;
40983;SDS011;26714;51.332;12.406;2023-07-16T05:32:15;6.00;;;1.90;;
40983;SDS011;26714;51.332;12.406;2023-07-16T05:34:40;3.30;;;1.70;;
40983;SDS011;26714;51.332;12.406;2023-07-16T05:37:06;4.53;;;1.60;;
40983;SDS011;26714;51.332;12.406;2023-07-16T05:39:31;6.68;;;1.77;;
40983;SDS011;26714;51.332;12.406;2023-07-16T05:41:57;4.35;;;1.58;;
40983;SDS011;26714;51.332;12.406;2023-07-16T05:44:23;5.18;;;1.20;;
40983;SDS011;26714;51.332;12.406;2023-07-16T05:46:48;4.45;;;1.63;;
40983;SDS011;26714;51.332;12.406;2023-07-16T05:49:14;3.83;;;1.27;;
40983;SDS011;26714;51.332;12.406;2023-07-16T05:51:39;3.47;;;1.65;;
40983;SDS011;26714;51.332;12.406;2023-07-16T05:54:05;3.95;;;1.80;;
40983;SDS011;26714;51.332;12.406;2023-07-16T05:56:31;2.67;;;1.30;;
40983;SDS011;26714;51.332;12.406;2023-07-16T05:58:57;2.95;;;1.30;;
40983;SDS011;26714;51.332;12.406;2023-07-16T06:01:22;4.18;;;1.55;;
40983;SDS011;26714;51.332;12.406;2023-07-16T06:03:48;2.88;;;1.45;;
40983;SDS011;26714;51.332;12.406;2023-07-16T06:06:13;3.28;;;1.55;;
40983;SDS011;26714;51.332;12.406;2023-07-16T06:08:39;3.17;;;1.40;;
40983;SDS011;26714;51.332;12.406;2023-07-16T06:11:04;3.28;;;1.58;;
40983;SDS011;26714;51.332;12.406;2023-07-16T06:13:30;3.80;;;1.35;;
40983;SDS011;26714;51.332;12.406;2023-07-16T06:15:56;3.35;;;1.80;;
40983;SDS011;26714;51.332;12.406;2023-07-16T06:18:22;2.88;;;1.50;;
40983;SDS011;26714;51.332;12.406;2023-07-16T06:20:47;9.20;;;1.60;;
40983;SDS011;26714;51.332;12.406;2023-07-16T06:23:13;6.50;;;1.55;;
40983;SDS011;26714;51.332;12.406;2023-07-16T06:25:39;4.63;;;1.52;;
40983;SDS011;26714;51.332;12.406;2023-07-16T06:28:09;4.53;;;1.45;;
40983;SDS011;26714;51.332;12.406;2023-07-16T06:30:35;3.63;;;1.55;;
40983;SDS011;26714;51.332;12.406;2023-07-16T06:33:01;3.10;;;1.30;;
40983;SDS011;26714;51.332;12.406;2023-07-16T06:35:26;4.45;;;1.55;;
40983;SDS011;26714;51.332;12.406;2023-07-16T06:37:52;4.10;;;1.30;;
40983;SDS011;26714;51.332;12.406;2023-07-16T06:40:17;4.85;;;1.60;;
40983;SDS011;26714;51.332;12.406;2023-07-16T06:42:43;4.03;;;1.50;;
40983;SDS011;26714;51.332;12.406;2023-07-16T06:45:08;6.03;;;1.73;;
40983;SDS011;26714;51.332;12.406;2023-07-16T06:47:34;4.53;;;1.60;;
40983;SDS011;26714;51.332;12.406;2023-07-16T06:49:59;5.30;;;1.48;;
40983;SDS011;26714;51.332;12.406;2023-07-16T06:52:25;4.95;;;1.40;;
40983;SDS011;26714;51.332;12.406;2023-07-16T06:54:53;6.28;;;1.60;;
40983;SDS011;26714;51.332;12.406;2023-07-16T06:57:19;5.60;;;1.65;;
40983;SDS011;26714;51.332;12.406;2023-07-16T06:59:44;4.75;;;1.40;;
40983;SDS011;26714;51.332;12.406;2023-07-16T07:02:10;5.65;;;1.40;;
40983;SDS011;26714;51.332;12.406;2023-07-16T07:04:35;6.20;;;1.77;;
40983;SDS011;26714;51.332;12.406;2023-07-16T07:07:01;7.88;;;1.40;;
40983;SDS011;26714;51.332;12.406;2023-07-16T07:09:26;6.47;;;1.65;;
40983;SDS011;26714;51.332;12.406;2023-07-16T07:11:52;6.03;;;1.63;;
40983;SDS011;26714;51.332;12.406;2023-07-16T07:14:17;7.30;;;2.42;;
40983;SDS011;26714;51.332;12.406;2023-07-16T07:16:43;4.50;;;1.42;;
40983;SDS011;26714;51.332;12.406;2023-07-16T07:19:08;5.15;;;1.50;;
40983;SDS011;26714;51.332;12.406;2023-07-16T07:21:34;4.50;;;1.70;;
40983;SDS011;26714;51.332;12.406;2023-07-16T07:23:59;3.78;;;1.63;;
40983;SDS011;26714;51.332;12.406;2023-07-16T07:26:25;5.70;;;1.70;;
40983;SDS011;26714;51.332;12.406;2023-07-16T07:28:51;5.53;;;1.45;;
40983;SDS011;26714;51.332;12.406;2023-07-16T07:31:16;5.75;;;1.77;;
40983;SDS011;26714;51.332;12.406;2023-07-16T07:33:42;4.85;;;1.73;;
40983;SDS011;26714;51.332;12.406;2023-07-16T07:36:08;4.45;;;1.67;;
40983;SDS011;26714;51.332;12.406;2023-07-16T07:38:34;6.45;;;1.60;;
40983;SDS011;26714;51.332;12.406;2023-07-16T07:41:00;4.72;;;1.45;;
40983;SDS011;26714;51.332;12.406;2023-07-16T07:43:26;5.38;;;1.50;;
40983;SDS011;26714;51.332;12.406;2023-07-16T07:45:51;4.82;;;1.52;;
40983;SDS011;26714;51.332;12.406;2023-07-16T07:48:17;6.28;;;1.58;;
40983;SDS011;26714;51.332;12.406;2023-07-16T07:50:43;5.82;;;1.50;;
40983;SDS011;26714;51.332;12.406;2023-07-16T07:53:08;3.75;;;1.25;;
40983;SDS011;26714;51.332;12.406;2023-07-16T07:55:34;6.40;;;1.67;;
40983;SDS011;26714;51.332;12.406;2023-07-16T07:58:00;2.92;;;1.23;;
40983;SDS011;26714;51.332;12.406;2023-07-16T08:00:26;5.93;;;1.70;;
40983;SDS011;26714;51.332;12.406;2023-07-16T08:02:51;5.20;;;1.50;;
40983;SDS011;26714;51.332;12.406;2023-07-16T08:05:17;5.72;;;1.35;;
40983;SDS011;26714;51.332;12.406;2023-07-16T08:07:42;6.57;;;1.70;;
40983;SDS011;26714;51.332;12.406;2023-07-16T08:10:08;5.70;;;1.52;;
40983;SDS011;26714;51.332;12.406;2023-07-16T08:12:33;5.20;;;1.80;;
40983;SDS011;26714;51.332;12.406;2023-07-16T08:14:59;4.05;;;1.65;;
40983;SDS011;26714;51.332;12.406;2023-07-16T08:17:25;3.85;;;1.50;;
40983;SDS011;26714;51.332;12.406;2023-07-16T08:19:50;5.93;;;1.23;;
40983;SDS011;26714;51.332;12.406;2023-07-16T08:22:16;6.93;;;1.60;;
40983;SDS011;26714;51.332;12.406;2023-07-16T08:24:41;5.38;;;1.50;;
40983;SDS011;26714;51.332;12.406;2023-07-16T08:27:07;5.68;;;1.40;;
40983;SDS011;26714;51.332;12.406;2023-07-16T08:29:34;6.47;;;1.80;;
40983;SDS011;26714;51.332;12.406;2023-07-16T08:32:00;5.10;;;1.45;;
40983;SDS011;26714;51.332;12.406;2023-07-16T08:34:25;4.78;;;1.48;;
40983;SDS011;26714;51.332;12.406;2023-07-16T08:36:51;4.97;;;1.70;;
40983;SDS011;26714;51.332;12.406;2023-07-16T08:39:17;5.28;;;1.33;;
40983;SDS011;26714;51.332;12.406;2023-07-16T08:41:44;4.28;;;1.30;;
40983;SDS011;26714;51.332;12.406;2023-07-16T08:44:10;7.68;;;1.55;;
40983;SDS011;26714;51.332;12.406;2023-07-16T08:46:37;4.13;;;1.30;;
40983;SDS011;26714;51.332;12.406;2023-07-16T08:49:02;5.72;;;1.50;;
40983;SDS011;26714;51.332;12.406;2023-07-16T08:51:28;3.92;;;1.40;;
40983;SDS011;26714;51.332;12.406;2023-07-16T08:53:54;4.93;;;1.30;;
40983;SDS011;26714;51.332;12.406;2023-07-16T08:56:19;6.45;;;1.70;;
40983;SDS011;26714;51.332;12.406;2023-07-16T08:58:45;3.60;;;1.30;;
40983;SDS011;26714;51.332;12.406;2023-07-16T09:01:11;4.95;;;1.40;;
40983;SDS011;26714;51.332;12.406;2023-07-16T09:03:37;6.13;;;1.60;;
40983;SDS011;26714;51.332;12.406;2023-07-16T09:06:03;3.60;;;1.20;;
40983;SDS011;26714;51.332;12.406;2023-07-16T09:08:29;4.43;;;1.25;;
40983;SDS011;26714;51.332;12.406;2023-07-16T09:10:55;5.65;;;1.35;;
40983;SDS011;26714;51.332;12.406;2023-07-16T09:13:21;4.47;;;1.48;;
40983;SDS011;26714;51.332;12.406;2023-07-16T09:15:52;6.53;;;1.77;;
40983;SDS011;26714;51.332;12.406;2023-07-16T09:18:21;3.90;;;1.20;;
40983;SDS011;26714;51.332;12.406;2023-07-16T09:20:47;6.15;;;1.50;;
40983;SDS011;26714;51.332;12.406;2023-07-16T09:23:13;6.35;;;1.67;;
40983;SDS011;26714;51.332;12.406;2023-07-16T09:25:38;7.68;;;1.20;;
40983;SDS011;26714;51.332;12.406;2023-07-16T09:28:05;6.32;;;1.60;;
40983;SDS011;26714;51.332;12.406;2023-07-16T09:30:31;5.05;;;1.35;;
40983;SDS011;26714;51.332;12.406;2023-07-16T09:33:12;5.93;;;1.73;;
40983;SDS011;26714;51.332;12.406;2023-07-16T09:38:07;6.55;;;1.30;;
40983;SDS011;26714;51.332;12.406;2023-07-16T09:40:33;8.52;;;1.60;;
40983;SDS011;26714;51.332;12.406;2023-07-16T09:42:59;5.13;;;1.38;;
40983;SDS011;26714;51.332;12.406;2023-07-16T09:45:26;5.60;;;1.50;;
40983;SDS011;26714;51.332;12.406;2023-07-16T09:47:52;5.03;;;1.55;;
40983;SDS011;26714;51.332;12.406;2023-07-16T09:50:18;3.55;;;1.20;;
40983;SDS011;26714;51.332;12.406;2023-07-16T09:52:43;4.60;;;1.17;;
40983;SDS011;26714;51.332;12.406;2023-07-16T09:55:10;6.63;;;1.60;;
40983;SDS011;26714;51.332;12.406;2023-07-16T09:57:37;6.55;;;1.50;;
40983;SDS011;26714;51.332;12.406;2023-07-16T10:00:06;6.00;;;1.30;;
40983;SDS011;26714;51.332;12.406;2023-07-16T10:02:38;3.13;;;1.25;;
40983;SDS011;26714;51.332;12.406;2023-07-16T10:05:14;6.07;;;1.30;;
40983;SDS011;26714;51.332;12.406;2023-07-16T10:07:40;4.60;;;1.50;;
40983;SDS011;26714;51.332;12.406;2023-07-16T10:10:09;11.13;;;1.58;;
40983;SDS011;26714;51.332;12.406;2023-07-16T10:12:38;5.88;;;1.88;;
40983;SDS011;26714;51.332;12.406;2023-07-16T10:15:04;3.97;;;1.55;;
40983;SDS011;26714;51.332;12.406;2023-07-16T10:17:30;6.80;;;1.50;;
40983;SDS011;26714;51.332;12.406;2023-07-16T10:25:05;7.15;;;1.75;;
40983;SDS011;26714;51.332;12.406;2023-07-16T10:27:31;4.82;;;1.60;;
40983;SDS011;26714;51.332;12.406;2023-07-16T10:29:58;3.45;;;1.40;;
40983;SDS011;26714;51.332;12.406;2023-07-16T10:32:25;10.90;;;1.70;;
40983;SDS011;26714;51.332;12.406;2023-07-16T10:34:52;6.15;;;1.60;;
40983;SDS011;26714;51.332;12.406;2023-07-16T10:37:17;8.20;;;1.60;;
40983;SDS011;26714;51.332;12.406;2023-07-16T10:39:47;4.45;;;1.67;;
40983;SDS011;26714;51.332;12.406;2023-07-16T10:42:13;4.30;;;1.58;;
40983;SDS011;26714;51.332;12.406;2023-07-16T10:44:39;5.32;;;1.80;;
40983;SDS011;26714;51.332;12.406;2023-07-16T10:47:05;6.55;;;1.67;;
40983;SDS011;26714;51.332;12.406;2023-07-16T10:49:30;4.95;;;1.30;;
40983;SDS011;26714;51.332;12.406;2023-07-16T10:51:58;4.18;;;1.42;;
40983;SDS011;26714;51.332;12.406;2023-07-16T10:54:24;5.28;;;1.92;;
40983;SDS011;26714;51.332;12.406;2023-07-16T10:56:50;4.03;;;1.42;;
40983;SDS011;26714;51.332;12.406;2023-07-16T10:59:17;5.18;;;1.38;;
40983;SDS011;26714;51.332;12.406;2023-07-16T11:01:42;5.53;;;1.83;;
40983;SDS011;26714;51.332;12.406;2023-07-16T11:04:08;6.15;;;1.63;;
40983;SDS011;26714;51.332;12.406;2023-07-16T11:06:34;5.32;;;2.00;;
40983;SDS011;26714;51.332;12.406;2023-07-16T11:09:10;4.45;;;1.60;;
40983;SDS011;26714;51.332;12.406;2023-07-16T11:11:36;7.07;;;1.88;;
40983;SDS011;26714;51.332;12.406;2023-07-16T11:14:05;7.50;;;1.48;;
40983;SDS011;26714;51.332;12.406;2023-07-16T11:16:37;5.70;;;1.40;;
40983;SDS011;26714;51.332;12.406;2023-07-16T11:19:06;4.30;;;1.42;;
40983;SDS011;26714;51.332;12.406;2023-07-16T11:21:35;4.53;;;1.80;;
40983;SDS011;26714;51.332;12.406;2023-07-16T11:24:10;5.95;;;1.65;;
40983;SDS011;26714;51.332;12.406;2023-07-16T11:26:36;9.55;;;1.58;;
40983;SDS011;26714;51.332;12.406;2023-07-16T11:29:01;3.58;;;1.63;;
40983;SDS011;26714;51.332;12.406;2023-07-16T11:31:38;5.60;;;1.40;;
40983;SDS011;26714;51.332;12.406;2023-07-16T11:34:03;6.32;;;1.80;;
40983;SDS011;26714;51.332;12.406;2023-07-16T11:36:29;5.25;;;1.55;;
40983;SDS011;26714;51.332;12.406;2023-07-16T11:38:55;4.10;;;1.40;;
40983;SDS011;26714;51.332;12.406;2023-07-16T11:41:20;10.38;;;1.80;;
40983;SDS011;26714;51.332;12.406;2023-07-16T11:43:46;3.13;;;1.45;;
40983;SDS011;26714;51.332;12.406;2023-07-16T11:46:15;4.40;;;1.40;;
40983;SDS011;26714;51.332;12.406;2023-07-16T11:48:41;4.35;;;1.73;;
40983;SDS011;26714;51.332;12.406;2023-07-16T11:51:07;10.13;;;1.60;;
40983;SDS011;26714;51.332;12.406;2023-07-16T11:53:32;9.27;;;1.70;;
40983;SDS011;26714;51.332;12.406;2023-07-16T11:55:58;4.68;;;2.00;;
40983;SDS011;26714;51.332;12.406;2023-07-16T11:58:24;4.20;;;1.65;;
40983;SDS011;26714;51.332;12.406;2023-07-16T12:00:49;5.22;;;1.80;;
40983;SDS011;26714;51.332;12.406;2023-07-16T12:03:16;5.45;;;1.90;;
40983;SDS011;26714;51.332;12.406;2023-07-16T12:05:42;7.45;;;1.70;;
40983;SDS011;26714;51.332;12.406;2023-07-16T12:08:08;5.18;;;1.60;;
40983;SDS011;26714;51.332;12.406;2023-07-16T12:10:40;7.72;;;1.88;;
40983;SDS011;26714;51.332;12.406;2023-07-16T12:13:05;3.60;;;1.70;;
40983;SDS011;26714;51.332;12.406;2023-07-16T12:15:30;4.30;;;1.83;;
40983;SDS011;26714;51.332;12.406;2023-07-16T12:17:56;6.00;;;1.85;;
40983;SDS011;26714;51.332;12.406;2023-07-16T12:20:22;5.13;;;1.80;;
40983;SDS011;26714;51.332;12.406;2023-07-16T12:22:47;3.10;;;1.45;;
40983;SDS011;26714;51.332;12.406;2023-07-16T12:25:13;4.60;;;1.50;;
40983;SDS011;26714;51.332;12.406;2023-07-16T12:27:39;6.32;;;1.70;;
40983;SDS011;26714;51.332;12.406;2023-07-16T12:30:04;5.03;;;1.70;;
40983;SDS011;26714;51.332;12.406;2023-07-16T12:32:30;6.55;;;1.58;;
40983;SDS011;26714;51.332;12.406;2023-07-16T12:34:56;6.47;;;1.95;;
40983;SDS011;26714;51.332;12.406;2023-07-16T12:37:23;6.45;;;1.52;;
40983;SDS011;26714;51.332;12.406;2023-07-16T12:39:48;5.75;;;1.80;;
40983;SDS011;26714;51.332;12.406;2023-07-16T12:42:14;4.38;;;1.70;;
40983;SDS011;26714;51.332;12.406;2023-07-16T12:44:39;6.57;;;1.95;;
40983;SDS011;26714;51.332;12.406;2023-07-16T12:47:06;9.68;;;1.70;;
40983;SDS011;26714;51.332;12.406;2023-07-16T12:49:33;5.80;;;2.08;;
40983;SDS011;26714;51.332;12.406;2023-07-16T12:51:59;5.82;;;2.50;;
40983;SDS011;26714;51.332;12.406;2023-07-16T12:54:25;5.95;;;1.75;;
40983;SDS011;26714;51.332;12.406;2023-07-16T12:56:50;5.10;;;1.85;;
40983;SDS011;26714;51.332;12.406;2023-07-16T12:59:15;4.93;;;1.60;;
40983;SDS011;26714;51.332;12.406;2023-07-16T13:01:41;4.70;;;1.90;;
40983;SDS011;26714;51.332;12.406;2023-07-16T13:04:06;3.58;;;1.73;;
40983;SDS011;26714;51.332;12.406;2023-07-16T13:06:32;7.28;;;2.15;;
40983;SDS011;26714;51.332;12.406;2023-07-16T13:08:58;5.65;;;1.85;;
40983;SDS011;26714;51.332;12.406;2023-07-16T13:11:24;6.78;;;1.70;;
40983;SDS011;26714;51.332;12.406;2023-07-16T13:13:50;5.18;;;1.95;;
40983;SDS011;26714;51.332;12.406;2023-07-16T13:16:15;6.32;;;2.00;;
40983;SDS011;26714;51.332;12.406;2023-07-16T13:18:41;5.40;;;1.75;;
40983;SDS011;26714;51.332;12.406;2023-07-16T13:21:06;7.40;;;2.05;;
40983;SDS011;26714;51.332;12.406;2023-07-16T13:23:32;4.15;;;1.88;;
40983;SDS011;26714;51.332;12.406;2023-07-16T13:25:57;4.45;;;2.00;;
40983;SDS011;26714;51.332;12.406;2023-07-16T13:28:23;5.53;;;2.20;;
40983;SDS011;26714;51.332;12.406;2023-07-16T13:30:49;5.10;;;1.80;;
40983;SDS011;26714;51.332;12.406;2023-07-16T13:33:15;8.02;;;2.10;;
40983;SDS011;26714;51.332;12.406;2023-07-16T13:35:41;5.63;;;2.00;;
40983;SDS011;26714;51.332;12.406;2023-07-16T13:38:06;5.60;;;1.90;;
40983;SDS011;26714;51.332;12.406;2023-07-16T13:40:32;5.90;;;2.10;;
40983;SDS011;26714;51.332;12.406;2023-07-16T13:42:57;6.03;;;2.00;;
40983;SDS011;26714;51.332;12.406;2023-07-16T13:45:24;7.47;;;2.30;;
40983;SDS011;26714;51.332;12.406;2023-07-16T13:47:49;7.07;;;2.08;;
40983;SDS011;26714;51.332;12.406;2023-07-16T13:50:20;7.00;;;2.33;;
40983;SDS011;26714;51.332;12.406;2023-07-16T13:52:46;4.53;;;1.98;;
40983;SDS011;26714;51.332;12.406;2023-07-16T13:55:14;4.97;;;2.00;;
40983;SDS011;26714;51.332;12.406;2023-07-16T13:57:40;3.92;;;1.80;;
40983;SDS011;26714;51.332;12.406;2023-07-16T14:00:06;4.75;;;2.03;;
40983;SDS011;26714;51.332;12.406;2023-07-16T14:02:35;4.80;;;2.13;;
40983;SDS011;26714;51.332;12.406;2023-07-16T14:05:00;5.75;;;2.15;;
40983;SDS011;26714;51.332;12.406;2023-07-16T14:07:26;5.05;;;2.40;;
40983;SDS011;26714;51.332;12.406;2023-07-16T14:09:51;4.57;;;1.83;;
40983;SDS011;26714;51.332;12.406;2023-07-16T14:12:17;8.27;;;2.38;;
40983;SDS011;26714;51.332;12.406;2023-07-16T14:14:42;4.50;;;1.70;;
40983;SDS011;26714;51.332;12.406;2023-07-16T14:17:08;8.88;;;2.15;;
40983;SDS011;26714;51.332;12.406;2023-07-16T14:19:35;8.70;;;2.20;;
40983;SDS011;26714;51.332;12.406;2023-07-16T14:22:00;12.60;;;2.70;;
40983;SDS011;26714;51.332;12.406;2023-07-16T14:24:26;7.07;;;1.85;;
40983;SDS011;26714;51.332;12.406;2023-07-16T14:26:51;5.20;;;2.03;;
40983;SDS011;26714;51.332;12.406;2023-07-16T14:29:17;4.88;;;2.08;;
40983;SDS011;26714;51.332;12.406;2023-07-16T14:31:43;7.25;;;2.35;;
40983;SDS011;26714;51.332;12.406;2023-07-16T14:34:08;5.32;;;1.90;;
40983;SDS011;26714;51.332;12.406;2023-07-16T14:36:34;6.45;;;2.38;;
40983;SDS011;26714;51.332;12.406;2023-07-16T14:38:59;5.93;;;2.33;;
40983;SDS011;26714;51.332;12.406;2023-07-16T14:41:25;7.32;;;2.65;;
40983;SDS011;26714;51.332;12.406;2023-07-16T14:43:50;6.30;;;2.10;;